Ochopee, Florida
Current Conditions -  °F | °C
As of 4:55 AM on Wednesday 26 Nov 2014 (Local Time) from KMKY Reporting Station
Thunderstorm Thunderstorm  
Wind Chill: 73°   Ceiling: 1000
Heat Index: 73°   Visibility: 2.5mi
Dew Point: 72°   Wind: 8mph
Humidity: 94%   Direction: 220°SW
Pressure: 29.91"   Gusts: 24mph
Location:  25.9°N, 81.3°W
Report Text: KMKY 260955Z AUTO 22007G21KT 2 1/2SM TS FEW005 BKN010 OVC026 23/22 A2991 RMK AO1 LTG DSNT SW TSB33 P0064
Loading
Personal Weather Stations






























Interactive Weather Map New forecast layout! Learn more

10-Day Weather Forecast

Advertisements
Track Severe Weather on mobile